createdAt,value
2018-08-03T00:00:55.193Z,99.90
2018-08-03T00:03:23.604Z,99.90
2018-08-03T00:05:52.018Z,99.90
2018-08-03T00:08:20.533Z,99.90
2018-08-03T00:10:48.924Z,99.90
2018-08-03T00:13:17.287Z,99.90
2018-08-03T00:15:45.705Z,99.90
2018-08-03T00:18:14.252Z,99.90
2018-08-03T00:20:42.884Z,99.90
2018-08-03T00:23:11.315Z,99.90
2018-08-03T00:25:39.737Z,99.90
2018-08-03T00:28:08.143Z,99.90
2018-08-03T00:30:36.548Z,99.90
2018-08-03T00:33:04.932Z,99.90
2018-08-03T00:35:33.370Z,99.90
2018-08-03T00:38:01.818Z,99.90
2018-08-03T00:40:30.160Z,99.90
2018-08-03T00:42:58.607Z,99.90
2018-08-03T00:45:27.134Z,99.90
2018-08-03T00:47:55.589Z,99.90
2018-08-03T00:50:24.050Z,99.90
2018-08-03T00:52:52.467Z,99.90
2018-08-03T00:55:20.912Z,99.90
2018-08-03T00:57:49.528Z,99.90
2018-08-03T01:00:18.023Z,99.90
2018-08-03T01:02:46.396Z,99.90
2018-08-03T01:05:14.772Z,99.90
2018-08-03T01:07:43.140Z,99.90
2018-08-03T01:10:11.563Z,99.90
2018-08-03T01:12:39.910Z,99.90
2018-08-03T01:15:08.343Z,99.90
2018-08-03T01:17:36.775Z,99.90
2018-08-03T01:20:05.874Z,99.90
2018-08-03T01:22:34.252Z,99.90
2018-08-03T01:25:02.732Z,99.90
2018-08-03T01:27:31.113Z,99.90
2018-08-03T01:29:59.519Z,99.90
2018-08-03T01:32:27.913Z,99.90
2018-08-03T01:34:56.280Z,99.90
2018-08-03T01:37:24.709Z,99.90
2018-08-03T01:39:53.078Z,99.90
2018-08-03T01:42:21.480Z,99.90
2018-08-03T01:44:49.889Z,99.90
2018-08-03T01:47:18.337Z,99.90
2018-08-03T01:49:46.680Z,99.90
2018-08-03T01:52:15.044Z,99.90
2018-08-03T01:54:43.442Z,99.90
2018-08-03T01:57:11.833Z,99.90
2018-08-03T01:59:40.225Z,99.90
2018-08-03T02:02:08.657Z,99.90
2018-08-03T02:04:37.022Z,99.90
2018-08-03T02:07:05.431Z,99.90
2018-08-03T02:09:33.865Z,99.90
2018-08-03T02:12:02.253Z,99.90
2018-08-03T02:14:30.725Z,99.90
2018-08-03T02:16:59.185Z,99.90
2018-08-03T02:19:27.676Z,99.90
2018-08-03T02:21:56.101Z,99.90
2018-08-03T02:24:24.571Z,99.90
2018-08-03T02:26:53.023Z,99.90
2018-08-03T02:29:21.422Z,99.90
2018-08-03T02:31:49.801Z,99.90
2018-08-03T02:34:18.174Z,99.90
2018-08-03T02:36:46.560Z,99.90
2018-08-03T02:39:14.924Z,99.90
2018-08-03T02:41:43.336Z,99.90
2018-08-03T02:44:11.797Z,99.90
2018-08-03T02:46:40.128Z,99.90
2018-08-03T02:49:08.485Z,99.90
2018-08-03T02:51:36.924Z,99.90
2018-08-03T02:54:05.331Z,99.90
2018-08-03T02:56:33.692Z,99.90
2018-08-03T02:59:02.150Z,99.90
2018-08-03T03:01:30.580Z,99.90
2018-08-03T03:03:58.949Z,99.90
2018-08-03T03:06:27.377Z,99.90
2018-08-03T03:08:55.926Z,99.90
2018-08-03T03:11:24.288Z,99.90
2018-08-03T03:13:52.684Z,99.90
2018-08-03T03:16:21.086Z,99.90
2018-08-03T03:18:49.458Z,99.90
2018-08-03T03:21:17.865Z,99.90
2018-08-03T03:23:46.264Z,99.90
2018-08-03T03:26:14.639Z,99.90
2018-08-03T03:28:43.037Z,99.90
2018-08-03T03:31:11.440Z,99.90
2018-08-03T03:33:39.828Z,99.90
2018-08-03T03:36:08.236Z,99.90
2018-08-03T03:38:36.606Z,99.90
2018-08-03T03:41:04.978Z,99.90
2018-08-03T03:43:33.350Z,99.90
2018-08-03T03:46:01.739Z,99.90
2018-08-03T03:48:30.102Z,99.90
2018-08-03T03:50:58.573Z,99.90
2018-08-03T03:55:55.045Z,99.90
2018-08-03T03:58:23.441Z,99.90
2018-08-03T04:00:51.860Z,99.90
2018-08-03T04:03:20.275Z,99.90
2018-08-03T04:05:48.664Z,99.90
2018-08-03T04:08:17.047Z,99.90
2018-08-03T04:10:45.486Z,99.90
2018-08-03T04:20:41.051Z,99.90
2018-08-03T04:23:09.492Z,99.90
2018-08-03T04:25:37.954Z,99.90
2018-08-03T04:28:06.275Z,99.90
2018-08-03T04:30:34.675Z,99.90
2018-08-03T04:33:03.068Z,99.90
2018-08-03T04:35:31.452Z,99.90
2018-08-03T04:37:59.842Z,99.90
2018-08-03T04:40:28.225Z,99.90
2018-08-03T04:42:56.594Z,99.90
2018-08-03T04:45:24.967Z,99.90
2018-08-03T04:47:53.416Z,99.90
2018-08-03T04:50:21.806Z,99.90
2018-08-03T04:52:50.256Z,99.90
2018-08-03T04:55:18.680Z,99.90
2018-08-03T04:57:47.206Z,99.90
2018-08-03T05:00:15.619Z,99.90
2018-08-03T05:02:43.997Z,99.90
2018-08-03T05:05:12.359Z,99.90
2018-08-03T05:07:40.850Z,99.90
2018-08-03T05:10:09.182Z,99.90
2018-08-03T05:12:37.672Z,99.90
2018-08-03T05:15:06.869Z,99.90
2018-08-03T05:17:35.293Z,99.90
2018-08-03T05:20:03.841Z,99.90
2018-08-03T05:22:32.237Z,99.90
2018-08-03T05:25:00.765Z,99.90
2018-08-03T05:27:29.116Z,99.90
2018-08-03T05:29:57.507Z,99.90
2018-08-03T05:32:25.925Z,99.90
2018-08-03T05:34:54.336Z,99.90
2018-08-03T05:37:22.759Z,99.90
2018-08-03T05:39:51.166Z,99.90
2018-08-03T05:42:19.649Z,99.90
2018-08-03T05:44:48.110Z,99.90
2018-08-03T05:47:16.466Z,99.90
2018-08-03T05:49:44.876Z,99.90
2018-08-03T05:52:13.288Z,99.90
2018-08-03T05:54:41.714Z,99.90
2018-08-03T05:57:10.102Z,99.90
2018-08-03T05:59:38.553Z,99.90
2018-08-03T06:02:06.970Z,99.90
2018-08-03T06:04:35.371Z,99.90
2018-08-03T06:07:03.822Z,99.90
2018-08-03T06:09:32.251Z,99.90
2018-08-03T06:12:00.615Z,99.90
2018-08-03T06:14:29.016Z,99.90
2018-08-03T06:16:57.448Z,99.90
2018-08-03T06:19:25.881Z,99.90
2018-08-03T06:21:54.349Z,99.90
2018-08-03T06:24:22.782Z,99.90
2018-08-03T06:26:51.176Z,99.90
2018-08-03T06:29:19.568Z,99.90
2018-08-03T06:31:48.012Z,99.90
2018-08-03T06:34:16.384Z,99.90
2018-08-03T06:36:44.800Z,99.90
2018-08-03T06:39:13.242Z,99.90
2018-08-03T06:41:42.448Z,99.90
2018-08-03T06:44:10.918Z,99.90
2018-08-03T06:46:39.409Z,99.90
2018-08-03T06:49:07.838Z,99.90
2018-08-03T06:51:36.264Z,99.90
2018-08-03T06:54:04.724Z,99.90
2018-08-03T06:56:33.212Z,99.90
2018-08-03T06:59:01.664Z,99.90
2018-08-03T07:01:30.079Z,99.90
2018-08-03T07:03:58.494Z,99.90
2018-08-03T07:06:26.922Z,99.90
2018-08-03T07:08:55.358Z,99.90
2018-08-03T07:11:23.817Z,99.90
2018-08-03T07:13:52.215Z,99.90
2018-08-03T07:16:20.642Z,99.90
2018-08-03T07:18:49.057Z,99.90
2018-08-03T07:21:24.267Z,99.90
2018-08-03T07:23:52.735Z,99.90
2018-08-03T07:26:21.182Z,99.90
2018-08-03T07:28:50.209Z,99.90
2018-08-03T07:31:18.802Z,99.90
2018-08-03T07:33:47.771Z,99.90
2018-08-03T07:36:16.480Z,99.90
2018-08-03T07:38:45.215Z,99.90
2018-08-03T07:41:13.626Z,99.90
2018-08-03T07:43:42.061Z,99.90
2018-08-03T07:46:10.636Z,99.90
2018-08-03T07:48:39.084Z,99.90
2018-08-03T07:51:07.669Z,99.90
2018-08-03T07:53:36.127Z,99.90
2018-08-03T07:56:04.546Z,99.90
2018-08-03T07:58:32.987Z,99.90
2018-08-03T08:01:01.578Z,99.90
2018-08-03T08:03:30.258Z,99.90
2018-08-03T08:05:58.669Z,99.90
2018-08-03T08:08:27.094Z,99.90
2018-08-03T08:10:55.582Z,99.90
2018-08-03T08:13:24.024Z,99.90
2018-08-03T08:18:20.605Z,99.90
2018-08-03T08:20:49.053Z,99.90
2018-08-03T08:23:17.536Z,99.90
2018-08-03T08:25:45.932Z,99.90
2018-08-03T08:28:14.346Z,99.90
2018-08-03T08:30:42.841Z,99.90
2018-08-03T08:33:11.235Z,99.90
2018-08-03T08:35:39.608Z,99.90
2018-08-03T08:38:08.149Z,99.90
2018-08-03T08:40:36.560Z,99.90
2018-08-03T08:43:05.081Z,99.90
2018-08-03T08:45:33.620Z,99.90
2018-08-03T08:48:02.039Z,99.90
2018-08-03T08:50:30.504Z,99.90
2018-08-03T08:52:59.137Z,99.90
2018-08-03T08:55:27.476Z,99.90
2018-08-03T08:57:55.917Z,99.90
2018-08-03T09:00:24.442Z,99.90
2018-08-03T09:02:52.903Z,99.90
2018-08-03T09:05:21.456Z,99.90
2018-08-03T09:07:49.978Z,99.90
2018-08-03T09:10:18.394Z,99.90
2018-08-03T09:12:47.015Z,99.90
2018-08-03T09:15:15.457Z,99.90
2018-08-03T09:17:43.864Z,99.90
2018-08-03T09:20:12.313Z,99.90
2018-08-03T09:22:40.809Z,99.90
2018-08-03T09:25:09.385Z,99.90
2018-08-03T09:27:37.907Z,99.90
2018-08-03T09:30:08.540Z,99.90
2018-08-03T09:32:36.914Z,99.90
2018-08-03T09:35:05.873Z,99.90
2018-08-03T09:37:34.385Z,99.90
2018-08-03T09:40:02.899Z,99.90
2018-08-03T09:42:31.503Z,99.90
2018-08-03T09:44:59.904Z,99.90
2018-08-03T09:47:28.468Z,99.90
2018-08-03T09:49:56.891Z,99.90
2018-08-03T09:52:25.391Z,99.90
2018-08-03T09:54:56.647Z,99.90
2018-08-03T09:58:07.104Z,99.90
2018-08-03T10:00:41.069Z,99.90
2018-08-03T10:03:09.644Z,99.90
2018-08-03T10:05:38.055Z,99.90
2018-08-03T10:08:06.508Z,99.90
2018-08-03T10:10:34.887Z,99.90
2018-08-03T10:13:03.340Z,99.90
2018-08-03T10:15:31.792Z,99.90
2018-08-03T10:18:00.241Z,99.90
2018-08-03T10:20:28.831Z,99.90
2018-08-03T10:22:57.286Z,99.90
2018-08-03T10:25:25.772Z,99.90
2018-08-03T10:27:54.361Z,99.90
2018-08-03T10:30:22.804Z,99.90
2018-08-03T10:32:51.213Z,99.90
2018-08-03T10:37:48.140Z,99.90
2018-08-03T10:40:16.558Z,99.90
2018-08-03T17:34:59.958Z,53.20
2018-08-03T17:37:28.341Z,57.10
2018-08-03T17:39:56.789Z,58.30
2018-08-03T17:42:25.352Z,59.10
2018-08-03T17:44:53.751Z,59.10
2018-08-03T17:47:22.153Z,59.10
2018-08-03T17:49:50.649Z,59.20
2018-08-03T17:52:19.083Z,59.60
2018-08-03T17:54:47.577Z,58.90
2018-08-03T17:57:15.905Z,59.30
2018-08-03T17:59:44.695Z,59.50
2018-08-03T18:02:13.127Z,59.70
2018-08-03T18:04:41.623Z,60.70
2018-08-03T18:07:10.111Z,61.90
2018-08-03T18:09:38.622Z,61.40
2018-08-03T18:12:07.094Z,60.80
2018-08-03T18:14:35.597Z,60.90
2018-08-03T18:17:03.982Z,60.80
2018-08-03T18:19:32.395Z,61.20
2018-08-03T18:22:00.903Z,61.80
2018-08-03T18:24:29.383Z,64.00
2018-08-03T18:26:57.789Z,64.30
2018-08-03T18:29:26.285Z,62.80
2018-08-03T18:31:54.657Z,63.30
2018-08-03T18:34:23.980Z,64.50
2018-08-03T18:36:53.138Z,65.70
2018-08-03T18:39:21.850Z,66.30
2018-08-03T18:41:50.585Z,69.20
2018-08-03T18:44:19.175Z,69.20
2018-08-03T18:46:47.790Z,69.60
2018-08-03T18:49:16.429Z,69.20
2018-08-03T18:51:45.448Z,67.70
2018-08-03T18:54:14.369Z,70.90
2018-08-03T18:56:43.247Z,71.80
2018-08-03T18:59:12.385Z,72.40
2018-08-03T19:01:40.999Z,73.40
2018-08-03T19:04:09.488Z,73.20
2018-08-03T19:06:38.136Z,74.50
2018-08-03T19:09:07.774Z,75.70
2018-08-03T19:11:36.849Z,76.70
2018-08-03T19:14:05.785Z,77.80
2018-08-03T19:16:34.229Z,79.20
2018-08-03T19:19:02.663Z,80.70
2018-08-03T19:21:31.180Z,82.50
2018-08-03T19:23:59.649Z,82.50
2018-08-03T19:26:28.227Z,83.20
2018-08-03T19:28:56.637Z,83.30
2018-08-03T19:31:25.117Z,83.40
2018-08-03T19:33:53.937Z,83.30
2018-08-03T19:36:22.373Z,83.10
2018-08-03T19:38:50.792Z,85.50
2018-08-03T19:41:19.213Z,86.80
2018-08-03T19:43:47.703Z,87.70
2018-08-03T19:46:16.186Z,89.00
2018-08-03T19:48:44.718Z,90.20
2018-08-03T19:51:13.165Z,90.70
2018-08-03T19:53:41.628Z,91.30
2018-08-03T19:56:10.063Z,92.00
2018-08-03T19:58:38.593Z,92.50
2018-08-03T20:01:06.930Z,93.30
2018-08-03T20:03:35.368Z,94.10
2018-08-03T20:06:03.995Z,95.20
2018-08-03T20:08:32.418Z,95.80
2018-08-03T20:11:00.890Z,96.70
2018-08-03T20:13:29.401Z,98.10
